マプト の空港の天気 - METARとTAF

マプト国際空港 ( FQMA / MPM ) - モザンビーク マプト
飛行場実況気象(Metar)
観測時間01/16 20:00 CAT (01/16 18:00 UTC)
風向・風速東南東 4m/s
視程10km以上
天気現象
全天の4割程度の雲 雲底高度 610m
全天の8割程度の雲 雲底高度 2440m
気温27℃
湿度70%
気圧1013hPa
METARFQMA 161800Z 11008KT 9999 SCT020 BKN080 27/21 Q1013 NOSIG
過去の天気等 Google飛行場航空写真 Wunderground天気予報

過去48時間のMETAR

飛行場予報(TAF)
発表時間: 1/16 18:00 CAT (1/16 16:00 UTC)
予報対象時間: 16日20時 CAT ~ 18日2時 CAT
風向・風速東南東 5m/s
視程10km以上
全天の4割程度の雲 雲底高度 760m
全天の8割程度の雲 雲底高度 2440m
17日2時 CAT ~ 17日8時 CAT に 確率 30% で一時的に
風向・風速北 3m/s
視程5000m
天気現象弱い雨霧雨
全天の4割程度の雲 雲底高度 460m
17日14時 CAT ~ 17日16時 CAT に徐々に
風向・風速南 6m/s
TAF FQMA 161600Z 1618/1724 11010KT 9999 SCT025 BKN080 TX31/1713Z TN23/1703Z
PROB30 TEMPO 1700/1706 36006KT 5000 -RADZ SCT015
BECMG 1712/1714 17012KT